sensor_id;sensor_type;location;lat;lon;timestamp;P1;durP1;ratioP1;P2;durP2;ratioP2
68196;SDS011;55019;49.382;11.358;2023-02-15T00:01:27;6.20;;;2.80;;
68196;SDS011;55019;49.382;11.358;2023-02-15T00:03:53;6.78;;;2.80;;
68196;SDS011;55019;49.382;11.358;2023-02-15T00:06:18;6.38;;;3.50;;
68196;SDS011;55019;49.382;11.358;2023-02-15T00:08:44;7.47;;;3.40;;
68196;SDS011;55019;49.382;11.358;2023-02-15T00:11:11;8.70;;;3.13;;
68196;SDS011;55019;49.382;11.358;2023-02-15T00:13:38;10.45;;;3.65;;
68196;SDS011;55019;49.382;11.358;2023-02-15T00:16:08;8.15;;;3.47;;
68196;SDS011;55019;49.382;11.358;2023-02-15T00:18:35;8.00;;;3.85;;
68196;SDS011;55019;49.382;11.358;2023-02-15T00:21:05;6.22;;;3.13;;
68196;SDS011;55019;49.382;11.358;2023-02-15T00:23:32;9.75;;;3.15;;
68196;SDS011;55019;49.382;11.358;2023-02-15T00:26:10;7.88;;;3.88;;
68196;SDS011;55019;49.382;11.358;2023-02-15T00:28:37;7.78;;;3.47;;
68196;SDS011;55019;49.382;11.358;2023-02-15T00:31:04;7.55;;;2.83;;
68196;SDS011;55019;49.382;11.358;2023-02-15T00:33:29;6.80;;;3.30;;
68196;SDS011;55019;49.382;11.358;2023-02-15T00:35:58;7.93;;;3.70;;
68196;SDS011;55019;49.382;11.358;2023-02-15T00:38:25;9.30;;;3.63;;
68196;SDS011;55019;49.382;11.358;2023-02-15T00:40:52;9.35;;;3.63;;
68196;SDS011;55019;49.382;11.358;2023-02-15T00:43:21;6.53;;;2.88;;
68196;SDS011;55019;49.382;11.358;2023-02-15T00:45:47;6.15;;;2.78;;
68196;SDS011;55019;49.382;11.358;2023-02-15T00:48:13;7.18;;;3.28;;
68196;SDS011;55019;49.382;11.358;2023-02-15T00:50:38;6.28;;;2.83;;
68196;SDS011;55019;49.382;11.358;2023-02-15T00:53:04;7.68;;;3.00;;
68196;SDS011;55019;49.382;11.358;2023-02-15T00:55:29;8.02;;;2.95;;
68196;SDS011;55019;49.382;11.358;2023-02-15T00:57:55;7.70;;;2.85;;
68196;SDS011;55019;49.382;11.358;2023-02-15T01:00:20;6.38;;;2.58;;
68196;SDS011;55019;49.382;11.358;2023-02-15T01:02:46;6.22;;;3.03;;
68196;SDS011;55019;49.382;11.358;2023-02-15T01:05:11;6.18;;;2.65;;
68196;SDS011;55019;49.382;11.358;2023-02-15T01:07:37;9.00;;;3.25;;
68196;SDS011;55019;49.382;11.358;2023-02-15T01:10:03;8.50;;;3.63;;
68196;SDS011;55019;49.382;11.358;2023-02-15T01:12:29;7.30;;;3.10;;
68196;SDS011;55019;49.382;11.358;2023-02-15T01:14:55;7.25;;;3.03;;
68196;SDS011;55019;49.382;11.358;2023-02-15T01:17:20;7.03;;;3.05;;
68196;SDS011;55019;49.382;11.358;2023-02-15T01:19:46;8.05;;;3.50;;
68196;SDS011;55019;49.382;11.358;2023-02-15T01:22:11;7.03;;;3.13;;
68196;SDS011;55019;49.382;11.358;2023-02-15T01:24:36;7.63;;;3.38;;
68196;SDS011;55019;49.382;11.358;2023-02-15T01:27:02;8.80;;;3.50;;
68196;SDS011;55019;49.382;11.358;2023-02-15T01:29:27;8.70;;;2.92;;
68196;SDS011;55019;49.382;11.358;2023-02-15T01:31:53;8.77;;;3.15;;
68196;SDS011;55019;49.382;11.358;2023-02-15T01:34:18;9.88;;;3.78;;
68196;SDS011;55019;49.382;11.358;2023-02-15T01:36:44;5.75;;;2.78;;
68196;SDS011;55019;49.382;11.358;2023-02-15T01:39:09;6.75;;;3.38;;
68196;SDS011;55019;49.382;11.358;2023-02-15T01:41:35;8.45;;;3.30;;
68196;SDS011;55019;49.382;11.358;2023-02-15T01:44:02;7.47;;;3.08;;
68196;SDS011;55019;49.382;11.358;2023-02-15T01:46:30;7.47;;;3.05;;
68196;SDS011;55019;49.382;11.358;2023-02-15T01:49:04;6.85;;;3.70;;
68196;SDS011;55019;49.382;11.358;2023-02-15T01:51:36;9.30;;;3.70;;
68196;SDS011;55019;49.382;11.358;2023-02-15T01:54:23;7.15;;;3.10;;
68196;SDS011;55019;49.382;11.358;2023-02-15T01:56:54;5.65;;;3.05;;
68196;SDS011;55019;49.382;11.358;2023-02-15T01:59:25;6.65;;;2.67;;
68196;SDS011;55019;49.382;11.358;2023-02-15T02:01:51;8.25;;;3.70;;
68196;SDS011;55019;49.382;11.358;2023-02-15T02:04:31;8.55;;;3.40;;
68196;SDS011;55019;49.382;11.358;2023-02-15T02:07:02;7.10;;;3.30;;
68196;SDS011;55019;49.382;11.358;2023-02-15T02:09:29;6.70;;;2.83;;
68196;SDS011;55019;49.382;11.358;2023-02-15T02:11:55;6.75;;;3.28;;
68196;SDS011;55019;49.382;11.358;2023-02-15T02:14:20;8.90;;;3.47;;
68196;SDS011;55019;49.382;11.358;2023-02-15T02:28:03;7.28;;;3.28;;
68196;SDS011;55019;49.382;11.358;2023-02-15T02:33:34;6.78;;;2.60;;
68196;SDS011;55019;49.382;11.358;2023-02-15T02:36:23;6.60;;;3.20;;
68196;SDS011;55019;49.382;11.358;2023-02-15T02:39:32;6.88;;;3.25;;
68196;SDS011;55019;49.382;11.358;2023-02-15T02:42:02;5.03;;;2.65;;
68196;SDS011;55019;49.382;11.358;2023-02-15T02:44:41;9.82;;;3.28;;
68196;SDS011;55019;49.382;11.358;2023-02-15T02:47:13;6.00;;;2.70;;
68196;SDS011;55019;49.382;11.358;2023-02-15T02:49:45;7.28;;;3.05;;
68196;SDS011;55019;49.382;11.358;2023-02-15T02:55:03;6.93;;;3.38;;
68196;SDS011;55019;49.382;11.358;2023-02-15T02:57:33;8.82;;;3.03;;
68196;SDS011;55019;49.382;11.358;2023-02-15T03:00:02;7.07;;;3.65;;
68196;SDS011;55019;49.382;11.358;2023-02-15T03:02:32;6.45;;;3.25;;
68196;SDS011;55019;49.382;11.358;2023-02-15T03:05:04;10.13;;;3.60;;
68196;SDS011;55019;49.382;11.358;2023-02-15T03:07:33;5.50;;;3.17;;
68196;SDS011;55019;49.382;11.358;2023-02-15T03:10:01;6.38;;;2.63;;
68196;SDS011;55019;49.382;11.358;2023-02-15T03:12:34;6.30;;;3.08;;
68196;SDS011;55019;49.382;11.358;2023-02-15T03:15:03;9.02;;;3.42;;
68196;SDS011;55019;49.382;11.358;2023-02-15T03:17:44;8.10;;;3.35;;
68196;SDS011;55019;49.382;11.358;2023-02-15T03:22:59;8.93;;;3.35;;
68196;SDS011;55019;49.382;11.358;2023-02-15T03:25:36;6.35;;;2.80;;
68196;SDS011;55019;49.382;11.358;2023-02-15T03:28:06;7.88;;;3.10;;
68196;SDS011;55019;49.382;11.358;2023-02-15T03:30:34;8.90;;;3.22;;
68196;SDS011;55019;49.382;11.358;2023-02-15T03:33:02;9.10;;;3.30;;
68196;SDS011;55019;49.382;11.358;2023-02-15T03:35:37;6.97;;;3.20;;
68196;SDS011;55019;49.382;11.358;2023-02-15T03:38:13;7.15;;;3.40;;
68196;SDS011;55019;49.382;11.358;2023-02-15T03:40:45;9.35;;;4.07;;
68196;SDS011;55019;49.382;11.358;2023-02-15T03:48:41;5.45;;;2.75;;
68196;SDS011;55019;49.382;11.358;2023-02-15T03:51:12;6.65;;;3.15;;
68196;SDS011;55019;49.382;11.358;2023-02-15T03:54:01;6.40;;;2.45;;
68196;SDS011;55019;49.382;11.358;2023-02-15T03:56:27;9.20;;;4.03;;
68196;SDS011;55019;49.382;11.358;2023-02-15T03:58:55;6.85;;;3.22;;
68196;SDS011;55019;49.382;11.358;2023-02-15T04:01:40;7.82;;;3.25;;
68196;SDS011;55019;49.382;11.358;2023-02-15T04:04:39;9.57;;;3.15;;
68196;SDS011;55019;49.382;11.358;2023-02-15T04:07:08;6.88;;;3.25;;
68196;SDS011;55019;49.382;11.358;2023-02-15T04:09:34;8.90;;;3.53;;
68196;SDS011;55019;49.382;11.358;2023-02-15T04:12:18;9.57;;;3.85;;
68196;SDS011;55019;49.382;11.358;2023-02-15T04:14:44;9.15;;;3.92;;
68196;SDS011;55019;49.382;11.358;2023-02-15T04:17:28;9.00;;;3.92;;
68196;SDS011;55019;49.382;11.358;2023-02-15T04:19:54;9.95;;;3.65;;
68196;SDS011;55019;49.382;11.358;2023-02-15T04:22:38;8.27;;;3.67;;
68196;SDS011;55019;49.382;11.358;2023-02-15T04:25:22;11.93;;;3.90;;
68196;SDS011;55019;49.382;11.358;2023-02-15T04:27:48;11.30;;;4.55;;
68196;SDS011;55019;49.382;11.358;2023-02-15T04:30:16;9.50;;;4.65;;
68196;SDS011;55019;49.382;11.358;2023-02-15T04:32:43;10.10;;;4.30;;
68196;SDS011;55019;49.382;11.358;2023-02-15T04:35:09;9.85;;;4.45;;
68196;SDS011;55019;49.382;11.358;2023-02-15T04:37:36;12.38;;;4.97;;
68196;SDS011;55019;49.382;11.358;2023-02-15T04:40:02;8.68;;;3.97;;
68196;SDS011;55019;49.382;11.358;2023-02-15T04:42:29;11.75;;;5.07;;
68196;SDS011;55019;49.382;11.358;2023-02-15T04:44:54;12.95;;;5.40;;
68196;SDS011;55019;49.382;11.358;2023-02-15T04:47:19;9.95;;;4.22;;
68196;SDS011;55019;49.382;11.358;2023-02-15T04:49:45;9.45;;;4.60;;
68196;SDS011;55019;49.382;11.358;2023-02-15T04:52:11;9.82;;;4.90;;
68196;SDS011;55019;49.382;11.358;2023-02-15T04:54:39;12.10;;;4.75;;
68196;SDS011;55019;49.382;11.358;2023-02-15T04:59:30;11.98;;;4.30;;
68196;SDS011;55019;49.382;11.358;2023-02-15T05:01:56;8.98;;;3.78;;
68196;SDS011;55019;49.382;11.358;2023-02-15T05:04:22;9.13;;;4.28;;
68196;SDS011;55019;49.382;11.358;2023-02-15T05:06:47;9.80;;;4.05;;
68196;SDS011;55019;49.382;11.358;2023-02-15T05:09:16;10.55;;;4.22;;
68196;SDS011;55019;49.382;11.358;2023-02-15T05:11:41;11.38;;;4.00;;
68196;SDS011;55019;49.382;11.358;2023-02-15T05:14:07;9.85;;;4.15;;
68196;SDS011;55019;49.382;11.358;2023-02-15T05:16:32;11.85;;;4.65;;
68196;SDS011;55019;49.382;11.358;2023-02-15T05:18:58;11.00;;;4.28;;
68196;SDS011;55019;49.382;11.358;2023-02-15T05:21:23;6.90;;;3.45;;
68196;SDS011;55019;49.382;11.358;2023-02-15T05:23:49;11.70;;;4.47;;
68196;SDS011;55019;49.382;11.358;2023-02-15T05:26:18;9.32;;;4.07;;
68196;SDS011;55019;49.382;11.358;2023-02-15T05:29:04;8.30;;;3.83;;
68196;SDS011;55019;49.382;11.358;2023-02-15T05:31:30;8.57;;;3.70;;
68196;SDS011;55019;49.382;11.358;2023-02-15T05:33:56;9.55;;;4.45;;
68196;SDS011;55019;49.382;11.358;2023-02-15T05:36:22;11.15;;;4.43;;
68196;SDS011;55019;49.382;11.358;2023-02-15T05:38:47;10.05;;;4.43;;
68196;SDS011;55019;49.382;11.358;2023-02-15T05:41:13;9.75;;;4.32;;
68196;SDS011;55019;49.382;11.358;2023-02-15T05:43:39;8.68;;;3.90;;
68196;SDS011;55019;49.382;11.358;2023-02-15T05:46:04;10.98;;;5.20;;
68196;SDS011;55019;49.382;11.358;2023-02-15T05:48:31;7.82;;;4.00;;
68196;SDS011;55019;49.382;11.358;2023-02-15T05:51:03;6.47;;;3.53;;
68196;SDS011;55019;49.382;11.358;2023-02-15T05:53:34;9.50;;;4.43;;
68196;SDS011;55019;49.382;11.358;2023-02-15T05:56:01;9.80;;;3.97;;
68196;SDS011;55019;49.382;11.358;2023-02-15T05:58:37;8.70;;;3.92;;
68196;SDS011;55019;49.382;11.358;2023-02-15T06:01:07;9.73;;;4.00;;
68196;SDS011;55019;49.382;11.358;2023-02-15T06:03:34;7.65;;;3.78;;
68196;SDS011;55019;49.382;11.358;2023-02-15T06:05:59;10.02;;;4.25;;
68196;SDS011;55019;49.382;11.358;2023-02-15T06:08:24;8.73;;;3.92;;
68196;SDS011;55019;49.382;11.358;2023-02-15T06:10:50;8.38;;;4.22;;
68196;SDS011;55019;49.382;11.358;2023-02-15T06:13:15;10.00;;;3.95;;
68196;SDS011;55019;49.382;11.358;2023-02-15T06:15:41;8.98;;;4.70;;
68196;SDS011;55019;49.382;11.358;2023-02-15T06:18:06;11.55;;;4.10;;
68196;SDS011;55019;49.382;11.358;2023-02-15T06:20:31;10.10;;;4.60;;
68196;SDS011;55019;49.382;11.358;2023-02-15T06:22:57;8.60;;;3.72;;
68196;SDS011;55019;49.382;11.358;2023-02-15T06:25:22;10.27;;;5.32;;
68196;SDS011;55019;49.382;11.358;2023-02-15T06:27:49;9.07;;;3.88;;
68196;SDS011;55019;49.382;11.358;2023-02-15T06:30:15;9.38;;;4.22;;
68196;SDS011;55019;49.382;11.358;2023-02-15T06:32:40;12.13;;;4.90;;
68196;SDS011;55019;49.382;11.358;2023-02-15T06:35:06;9.35;;;4.40;;
68196;SDS011;55019;49.382;11.358;2023-02-15T06:37:32;8.63;;;4.07;;
68196;SDS011;55019;49.382;11.358;2023-02-15T06:39:57;11.52;;;3.88;;
68196;SDS011;55019;49.382;11.358;2023-02-15T06:42:23;12.35;;;3.83;;
68196;SDS011;55019;49.382;11.358;2023-02-15T06:44:48;11.93;;;4.35;;
68196;SDS011;55019;49.382;11.358;2023-02-15T06:47:14;12.00;;;4.90;;
68196;SDS011;55019;49.382;11.358;2023-02-15T06:49:39;12.70;;;4.95;;
68196;SDS011;55019;49.382;11.358;2023-02-15T06:52:05;11.90;;;3.92;;
68196;SDS011;55019;49.382;11.358;2023-02-15T06:54:30;12.00;;;4.35;;
68196;SDS011;55019;49.382;11.358;2023-02-15T06:56:56;8.82;;;4.40;;
68196;SDS011;55019;49.382;11.358;2023-02-15T06:59:21;7.43;;;2.95;;
68196;SDS011;55019;49.382;11.358;2023-02-15T07:01:47;10.20;;;3.50;;
68196;SDS011;55019;49.382;11.358;2023-02-15T07:04:12;7.15;;;3.72;;
68196;SDS011;55019;49.382;11.358;2023-02-15T07:06:38;7.65;;;3.65;;
68196;SDS011;55019;49.382;11.358;2023-02-15T07:09:03;9.68;;;4.15;;
68196;SDS011;55019;49.382;11.358;2023-02-15T07:11:29;8.68;;;3.17;;
68196;SDS011;55019;49.382;11.358;2023-02-15T07:14:14;6.28;;;3.10;;
68196;SDS011;55019;49.382;11.358;2023-02-15T07:16:40;6.95;;;3.20;;
68196;SDS011;55019;49.382;11.358;2023-02-15T07:19:06;9.85;;;4.18;;
68196;SDS011;55019;49.382;11.358;2023-02-15T07:21:32;7.57;;;3.35;;
68196;SDS011;55019;49.382;11.358;2023-02-15T07:23:59;7.15;;;3.30;;
68196;SDS011;55019;49.382;11.358;2023-02-15T07:26:25;6.70;;;2.38;;
68196;SDS011;55019;49.382;11.358;2023-02-15T07:28:50;9.68;;;4.10;;
68196;SDS011;55019;49.382;11.358;2023-02-15T07:31:16;6.60;;;2.80;;
68196;SDS011;55019;49.382;11.358;2023-02-15T07:33:42;8.15;;;3.78;;
68196;SDS011;55019;49.382;11.358;2023-02-15T07:36:07;9.95;;;4.90;;
68196;SDS011;55019;49.382;11.358;2023-02-15T07:38:37;10.38;;;4.38;;
68196;SDS011;55019;49.382;11.358;2023-02-15T07:41:05;7.22;;;3.50;;
68196;SDS011;55019;49.382;11.358;2023-02-15T07:43:33;8.70;;;3.75;;
68196;SDS011;55019;49.382;11.358;2023-02-15T07:46:00;8.70;;;4.13;;
68196;SDS011;55019;49.382;11.358;2023-02-15T07:48:30;8.38;;;3.25;;
68196;SDS011;55019;49.382;11.358;2023-02-15T07:51:00;6.80;;;3.78;;
68196;SDS011;55019;49.382;11.358;2023-02-15T07:53:26;10.32;;;3.40;;
68196;SDS011;55019;49.382;11.358;2023-02-15T07:55:52;8.85;;;3.72;;
68196;SDS011;55019;49.382;11.358;2023-02-15T07:58:17;12.80;;;5.05;;
68196;SDS011;55019;49.382;11.358;2023-02-15T08:00:43;6.63;;;3.67;;
68196;SDS011;55019;49.382;11.358;2023-02-15T08:03:24;9.77;;;4.32;;
68196;SDS011;55019;49.382;11.358;2023-02-15T08:05:58;8.52;;;3.55;;
68196;SDS011;55019;49.382;11.358;2023-02-15T08:08:25;12.18;;;4.90;;
68196;SDS011;55019;49.382;11.358;2023-02-15T08:11:04;9.00;;;3.72;;
68196;SDS011;55019;49.382;11.358;2023-02-15T08:13:54;7.78;;;3.45;;
68196;SDS011;55019;49.382;11.358;2023-02-15T08:18:52;8.25;;;3.22;;
68196;SDS011;55019;49.382;11.358;2023-02-15T08:21:18;10.30;;;3.92;;
68196;SDS011;55019;49.382;11.358;2023-02-15T08:23:44;10.57;;;4.00;;
68196;SDS011;55019;49.382;11.358;2023-02-15T08:26:09;9.20;;;3.88;;
68196;SDS011;55019;49.382;11.358;2023-02-15T08:28:35;12.00;;;5.25;;
68196;SDS011;55019;49.382;11.358;2023-02-15T08:31:04;7.50;;;3.97;;
68196;SDS011;55019;49.382;11.358;2023-02-15T08:33:37;9.90;;;3.85;;
68196;SDS011;55019;49.382;11.358;2023-02-15T08:36:08;9.50;;;4.15;;
68196;SDS011;55019;49.382;11.358;2023-02-15T08:38:36;9.77;;;4.22;;
68196;SDS011;55019;49.382;11.358;2023-02-15T08:41:18;9.00;;;3.88;;
68196;SDS011;55019;49.382;11.358;2023-02-15T08:43:46;12.85;;;4.00;;
68196;SDS011;55019;49.382;11.358;2023-02-15T08:46:13;9.48;;;4.28;;
68196;SDS011;55019;49.382;11.358;2023-02-15T08:48:39;7.93;;;3.78;;
68196;SDS011;55019;49.382;11.358;2023-02-15T08:51:09;9.73;;;4.22;;
68196;SDS011;55019;49.382;11.358;2023-02-15T08:53:40;10.00;;;4.25;;
68196;SDS011;55019;49.382;11.358;2023-02-15T08:56:06;12.13;;;4.40;;
68196;SDS011;55019;49.382;11.358;2023-02-15T08:58:33;12.93;;;4.88;;
68196;SDS011;55019;49.382;11.358;2023-02-15T09:00:59;12.85;;;6.15;;
68196;SDS011;55019;49.382;11.358;2023-02-15T09:03:26;13.98;;;6.50;;
68196;SDS011;55019;49.382;11.358;2023-02-15T09:05:57;13.13;;;5.97;;
68196;SDS011;55019;49.382;11.358;2023-02-15T09:08:24;14.50;;;6.20;;
68196;SDS011;55019;49.382;11.358;2023-02-15T09:10:50;15.05;;;6.10;;
68196;SDS011;55019;49.382;11.358;2023-02-15T09:13:16;12.40;;;5.95;;
68196;SDS011;55019;49.382;11.358;2023-02-15T09:15:41;9.85;;;4.32;;
68196;SDS011;55019;49.382;11.358;2023-02-15T09:18:06;11.38;;;4.72;;
68196;SDS011;55019;49.382;11.358;2023-02-15T09:20:35;13.57;;;4.70;;
68196;SDS011;55019;49.382;11.358;2023-02-15T09:23:01;12.15;;;4.75;;
68196;SDS011;55019;49.382;11.358;2023-02-15T09:25:26;11.13;;;4.97;;
68196;SDS011;55019;49.382;11.358;2023-02-15T09:27:52;9.48;;;4.55;;
68196;SDS011;55019;49.382;11.358;2023-02-15T09:30:18;10.13;;;4.38;;
68196;SDS011;55019;49.382;11.358;2023-02-15T09:32:43;11.27;;;4.88;;
68196;SDS011;55019;49.382;11.358;2023-02-15T09:35:11;18.45;;;8.25;;
68196;SDS011;55019;49.382;11.358;2023-02-15T09:37:37;13.55;;;5.68;;
68196;SDS011;55019;49.382;11.358;2023-02-15T09:40:03;11.18;;;5.07;;
68196;SDS011;55019;49.382;11.358;2023-02-15T09:45:50;10.02;;;4.43;;
68196;SDS011;55019;49.382;11.358;2023-02-15T09:48:48;10.13;;;4.80;;
68196;SDS011;55019;49.382;11.358;2023-02-15T09:51:34;8.70;;;4.10;;
68196;SDS011;55019;49.382;11.358;2023-02-15T09:54:23;9.57;;;4.38;;
68196;SDS011;55019;49.382;11.358;2023-02-15T10:00:02;8.82;;;4.93;;
68196;SDS011;55019;49.382;11.358;2023-02-15T10:02:38;8.98;;;4.22;;
68196;SDS011;55019;49.382;11.358;2023-02-15T10:10:59;10.20;;;5.18;;
68196;SDS011;55019;49.382;11.358;2023-02-15T10:14:24;12.38;;;5.43;;
68196;SDS011;55019;49.382;11.358;2023-02-15T10:17:28;8.82;;;4.13;;
68196;SDS011;55019;49.382;11.358;2023-02-15T10:31:43;8.57;;;4.22;;
68196;SDS011;55019;49.382;11.358;2023-02-15T10:36:53;8.73;;;4.05;;
68196;SDS011;55019;49.382;11.358;2023-02-15T10:39:43;7.80;;;3.85;;
68196;SDS011;55019;49.382;11.358;2023-02-15T10:42:48;7.90;;;3.20;;
68196;SDS011;55019;49.382;11.358;2023-02-15T10:51:02;7.35;;;4.03;;
68196;SDS011;55019;49.382;11.358;2023-02-15T11:01:41;6.20;;;3.47;;
68196;SDS011;55019;49.382;11.358;2023-02-15T11:06:53;6.88;;;4.03;;
68196;SDS011;55019;49.382;11.358;2023-02-15T11:09:27;9.40;;;4.90;;
68196;SDS011;55019;49.382;11.358;2023-02-15T11:12:03;9.23;;;4.80;;
68196;SDS011;55019;49.382;11.358;2023-02-15T11:17:17;10.77;;;5.55;;
68196;SDS011;55019;49.382;11.358;2023-02-15T11:19:54;12.10;;;5.40;;
68196;SDS011;55019;49.382;11.358;2023-02-15T11:22:43;9.90;;;4.85;;
68196;SDS011;55019;49.382;11.358;2023-02-15T11:25:25;10.52;;;4.95;;
68196;SDS011;55019;49.382;11.358;2023-02-15T11:27:57;10.93;;;5.28;;
68196;SDS011;55019;49.382;11.358;2023-02-15T11:30:28;10.88;;;5.03;;
68196;SDS011;55019;49.382;11.358;2023-02-15T11:33:29;9.48;;;5.43;;
68196;SDS011;55019;49.382;11.358;2023-02-15T11:38:33;8.40;;;4.75;;
68196;SDS011;55019;49.382;11.358;2023-02-15T11:41:09;10.00;;;5.75;;
68196;SDS011;55019;49.382;11.358;2023-02-15T11:46:48;10.07;;;6.00;;
68196;SDS011;55019;49.382;11.358;2023-02-15T11:49:29;9.75;;;6.45;;
68196;SDS011;55019;49.382;11.358;2023-02-15T11:51:57;10.02;;;5.93;;
68196;SDS011;55019;49.382;11.358;2023-02-15T11:54:30;8.75;;;6.05;;
68196;SDS011;55019;49.382;11.358;2023-02-15T11:57:13;9.43;;;5.85;;
68196;SDS011;55019;49.382;11.358;2023-02-15T11:59:45;8.50;;;5.22;;
68196;SDS011;55019;49.382;11.358;2023-02-15T12:02:19;9.50;;;5.70;;
68196;SDS011;55019;49.382;11.358;2023-02-15T12:08:34;7.07;;;4.68;;
68196;SDS011;55019;49.382;11.358;2023-02-15T12:10:48;8.35;;;5.28;;
68196;SDS011;55019;49.382;11.358;2023-02-15T12:13:18;7.55;;;5.88;;
68196;SDS011;55019;49.382;11.358;2023-02-15T12:15:45;8.88;;;6.75;;
68196;SDS011;55019;49.382;11.358;2023-02-15T12:21:11;8.68;;;6.03;;
68196;SDS011;55019;49.382;11.358;2023-02-15T12:23:43;8.45;;;5.85;;
68196;SDS011;55019;49.382;11.358;2023-02-15T12:26:11;8.65;;;5.45;;
68196;SDS011;55019;49.382;11.358;2023-02-15T12:28:38;7.65;;;5.65;;
68196;SDS011;55019;49.382;11.358;2023-02-15T12:31:31;9.18;;;6.15;;
68196;SDS011;55019;49.382;11.358;2023-02-15T12:33:57;9.55;;;6.82;;
68196;SDS011;55019;49.382;11.358;2023-02-15T12:36:38;8.73;;;5.95;;
68196;SDS011;55019;49.382;11.358;2023-02-15T12:41:38;8.88;;;6.13;;
68196;SDS011;55019;49.382;11.358;2023-02-15T12:44:18;10.32;;;7.47;;
68196;SDS011;55019;49.382;11.358;2023-02-15T12:46:58;11.43;;;8.02;;
68196;SDS011;55019;49.382;11.358;2023-02-15T12:49:24;10.60;;;7.63;;
68196;SDS011;55019;49.382;11.358;2023-02-15T12:51:52;11.27;;;8.05;;
68196;SDS011;55019;49.382;11.358;2023-02-15T12:54:33;10.73;;;7.00;;
68196;SDS011;55019;49.382;11.358;2023-02-15T12:57:02;9.15;;;6.40;;
68196;SDS011;55019;49.382;11.358;2023-02-15T12:59:52;9.95;;;7.25;;
68196;SDS011;55019;49.382;11.358;2023-02-15T13:02:27;10.02;;;6.43;;
68196;SDS011;55019;49.382;11.358;2023-02-15T13:04:55;9.70;;;7.13;;
68196;SDS011;55019;49.382;11.358;2023-02-15T13:07:23;10.23;;;7.40;;
68196;SDS011;55019;49.382;11.358;2023-02-15T13:09:54;10.35;;;7.32;;
68196;SDS011;55019;49.382;11.358;2023-02-15T13:14:51;10.30;;;7.20;;
68196;SDS011;55019;49.382;11.358;2023-02-15T13:17:27;10.57;;;6.97;;
68196;SDS011;55019;49.382;11.358;2023-02-15T13:20:06;11.73;;;7.03;;
68196;SDS011;55019;49.382;11.358;2023-02-15T13:22:44;10.05;;;6.88;;
68196;SDS011;55019;49.382;11.358;2023-02-15T13:25:14;8.98;;;6.43;;
68196;SDS011;55019;49.382;11.358;2023-02-15T13:27:45;10.30;;;7.35;;
68196;SDS011;55019;49.382;11.358;2023-02-15T13:30:16;8.60;;;6.47;;
68196;SDS011;55019;49.382;11.358;2023-02-15T13:32:43;9.10;;;6.72;;
68196;SDS011;55019;49.382;11.358;2023-02-15T13:35:14;9.93;;;6.85;;
68196;SDS011;55019;49.382;11.358;2023-02-15T13:49:06;10.57;;;7.25;;
68196;SDS011;55019;49.382;11.358;2023-02-15T14:00:26;12.60;;;7.75;;
68196;SDS011;55019;49.382;11.358;2023-02-15T14:06:11;11.63;;;7.38;;
68196;SDS011;55019;49.382;11.358;2023-02-15T14:20:21;13.80;;;8.40;;
68196;SDS011;55019;49.382;11.358;2023-02-15T14:29:16;14.90;;;9.45;;
68196;SDS011;55019;49.382;11.358;2023-02-15T14:31:54;15.90;;;10.02;;
68196;SDS011;55019;49.382;11.358;2023-02-15T14:34:25;16.88;;;10.13;;
68196;SDS011;55019;49.382;11.358;2023-02-15T14:36:52;14.60;;;8.88;;
68196;SDS011;55019;49.382;11.358;2023-02-15T14:39:27;18.10;;;9.45;;
68196;SDS011;55019;49.382;11.358;2023-02-15T14:42:24;15.65;;;9.85;;
68196;SDS011;55019;49.382;11.358;2023-02-15T14:45:04;15.00;;;9.10;;
68196;SDS011;55019;49.382;11.358;2023-02-15T14:47:48;16.88;;;9.90;;
68196;SDS011;55019;49.382;11.358;2023-02-15T14:50:35;16.95;;;9.95;;
68196;SDS011;55019;49.382;11.358;2023-02-15T14:53:22;16.08;;;9.93;;
68196;SDS011;55019;49.382;11.358;2023-02-15T14:56:13;15.57;;;9.75;;
68196;SDS011;55019;49.382;11.358;2023-02-15T15:01:15;15.52;;;9.95;;
68196;SDS011;55019;49.382;11.358;2023-02-15T15:03:49;15.90;;;9.82;;
68196;SDS011;55019;49.382;11.358;2023-02-15T15:06:57;15.88;;;9.85;;
68196;SDS011;55019;49.382;11.358;2023-02-15T15:09:25;14.45;;;8.57;;
68196;SDS011;55019;49.382;11.358;2023-02-15T15:11:54;15.32;;;9.88;;
68196;SDS011;55019;49.382;11.358;2023-02-15T15:14:38;15.90;;;9.98;;
68196;SDS011;55019;49.382;11.358;2023-02-15T15:17:06;16.42;;;9.60;;
68196;SDS011;55019;49.382;11.358;2023-02-15T15:22:19;18.33;;;10.05;;
68196;SDS011;55019;49.382;11.358;2023-02-15T15:25:04;16.70;;;10.40;;
68196;SDS011;55019;49.382;11.358;2023-02-15T15:27:52;17.85;;;10.63;;
68196;SDS011;55019;49.382;11.358;2023-02-15T15:47:49;22.98;;;10.88;;
68196;SDS011;55019;49.382;11.358;2023-02-15T15:50:33;23.23;;;10.90;;
68196;SDS011;55019;49.382;11.358;2023-02-15T15:53:00;18.63;;;10.05;;
68196;SDS011;55019;49.382;11.358;2023-02-15T15:55:30;23.35;;;10.43;;
68196;SDS011;55019;49.382;11.358;2023-02-15T15:58:02;21.55;;;9.80;;
68196;SDS011;55019;49.382;11.358;2023-02-15T16:05:50;25.30;;;10.35;;
68196;SDS011;55019;49.382;11.358;2023-02-15T16:11:00;24.65;;;10.98;;
68196;SDS011;55019;49.382;11.358;2023-02-15T16:13:36;24.58;;;11.70;;
68196;SDS011;55019;49.382;11.358;2023-02-15T16:18:30;26.63;;;10.55;;
68196;SDS011;55019;49.382;11.358;2023-02-15T16:20:57;28.48;;;11.35;;
68196;SDS011;55019;49.382;11.358;2023-02-15T16:28:52;24.33;;;10.95;;
68196;SDS011;55019;49.382;11.358;2023-02-15T16:31:19;24.88;;;10.40;;
68196;SDS011;55019;49.382;11.358;2023-02-15T16:33:51;29.15;;;10.35;;
68196;SDS011;55019;49.382;11.358;2023-02-15T16:36:25;24.33;;;10.98;;
68196;SDS011;55019;49.382;11.358;2023-02-15T16:41:21;26.15;;;10.00;;
68196;SDS011;55019;49.382;11.358;2023-02-15T16:43:49;26.55;;;11.00;;
68196;SDS011;55019;49.382;11.358;2023-02-15T16:46:18;29.80;;;12.15;;
68196;SDS011;55019;49.382;11.358;2023-02-15T16:48:51;25.25;;;10.13;;
68196;SDS011;55019;49.382;11.358;2023-02-15T16:51:19;28.02;;;10.65;;
68196;SDS011;55019;49.382;11.358;2023-02-15T16:53:47;26.75;;;10.73;;
68196;SDS011;55019;49.382;11.358;2023-02-15T16:56:13;28.30;;;11.80;;
68196;SDS011;55019;49.382;11.358;2023-02-15T16:58:41;25.90;;;11.10;;
68196;SDS011;55019;49.382;11.358;2023-02-15T17:01:09;21.60;;;10.25;;
68196;SDS011;55019;49.382;11.358;2023-02-15T17:03:38;25.92;;;9.55;;
68196;SDS011;55019;49.382;11.358;2023-02-15T17:06:04;20.55;;;8.88;;
68196;SDS011;55019;49.382;11.358;2023-02-15T17:08:46;21.88;;;9.60;;
68196;SDS011;55019;49.382;11.358;2023-02-15T17:16:27;20.15;;;9.07;;
68196;SDS011;55019;49.382;11.358;2023-02-15T17:18:54;20.50;;;9.05;;
68196;SDS011;55019;49.382;11.358;2023-02-15T17:21:30;19.38;;;8.95;;
68196;SDS011;55019;49.382;11.358;2023-02-15T17:23:58;20.30;;;9.27;;
68196;SDS011;55019;49.382;11.358;2023-02-15T17:29:00;20.52;;;8.23;;
68196;SDS011;55019;49.382;11.358;2023-02-15T17:31:34;21.25;;;8.90;;
68196;SDS011;55019;49.382;11.358;2023-02-15T17:34:00;22.23;;;9.95;;
68196;SDS011;55019;49.382;11.358;2023-02-15T17:36:27;21.95;;;8.98;;
68196;SDS011;55019;49.382;11.358;2023-02-15T17:43:51;20.15;;;8.73;;
68196;SDS011;55019;49.382;11.358;2023-02-15T17:46:16;23.13;;;9.10;;
68196;SDS011;55019;49.382;11.358;2023-02-15T17:48:45;20.05;;;9.45;;
68196;SDS011;55019;49.382;11.358;2023-02-15T17:51:12;22.80;;;9.98;;
68196;SDS011;55019;49.382;11.358;2023-02-15T17:53:39;19.05;;;8.57;;
68196;SDS011;55019;49.382;11.358;2023-02-15T17:56:06;21.70;;;9.05;;
68196;SDS011;55019;49.382;11.358;2023-02-15T17:58:37;20.33;;;8.77;;